createdAt,value
2019-05-26T00:01:16.984Z,10.80
2019-05-26T00:03:48.044Z,10.80
2019-05-26T00:06:17.675Z,10.80
2019-05-26T00:08:47.005Z,10.80
2019-05-26T00:11:17.867Z,10.80
2019-05-26T00:13:49.932Z,10.90
2019-05-26T00:16:21.980Z,10.80
2019-05-26T00:18:51.272Z,10.80
2019-05-26T00:21:20.769Z,10.70
2019-05-26T00:23:50.286Z,10.70
2019-05-26T00:26:19.767Z,10.50
2019-05-26T00:28:49.911Z,10.60
2019-05-26T00:31:21.399Z,10.50
2019-05-26T00:33:53.974Z,10.60
2019-05-26T00:36:23.141Z,10.60
2019-05-26T00:38:52.318Z,10.60
2019-05-26T00:41:23.362Z,10.70
2019-05-26T00:43:57.300Z,10.60
2019-05-26T00:46:29.107Z,10.60
2019-05-26T00:49:00.270Z,10.60
2019-05-26T00:51:30.997Z,10.70
2019-05-26T00:54:01.301Z,10.70
2019-05-26T00:56:39.849Z,10.80
2019-05-26T00:59:09.395Z,10.90
2019-05-26T01:01:38.572Z,11.00
2019-05-26T01:04:27.339Z,11.10
2019-05-26T01:06:57.280Z,11.10
2019-05-26T01:09:26.445Z,11.20
2019-05-26T01:11:58.321Z,11.10
2019-05-26T01:14:27.439Z,11.10
2019-05-26T01:16:56.653Z,11.10
2019-05-26T01:19:31.451Z,11.10
2019-05-26T01:22:00.596Z,11.10
2019-05-26T01:24:31.359Z,10.90
2019-05-26T01:27:01.740Z,10.90
2019-05-26T01:29:32.399Z,10.90
2019-05-26T01:32:02.734Z,10.80
2019-05-26T01:34:32.226Z,10.90
2019-05-26T01:37:03.138Z,10.90
2019-05-26T01:39:32.782Z,10.80
2019-05-26T01:42:02.975Z,10.90
2019-05-26T01:44:34.063Z,10.90
2019-05-26T01:47:04.656Z,10.90
2019-05-26T01:49:34.165Z,11.00
2019-05-26T01:52:03.368Z,11.00
2019-05-26T01:54:32.847Z,10.90
2019-05-26T01:57:02.071Z,10.90
2019-05-26T01:59:31.232Z,10.90
2019-05-26T02:02:02.480Z,11.00
2019-05-26T02:04:32.050Z,11.00
2019-05-26T02:07:04.127Z,11.10
2019-05-26T02:09:37.056Z,11.20
2019-05-26T02:12:07.687Z,11.30
2019-05-26T02:14:36.849Z,11.30
2019-05-26T02:17:06.091Z,11.30
2019-05-26T02:19:35.295Z,11.40
2019-05-26T02:22:04.555Z,11.40
2019-05-26T02:24:33.711Z,11.30
2019-05-26T02:27:03.599Z,11.30
2019-05-26T02:29:33.340Z,11.40
2019-05-26T02:32:02.602Z,11.40
2019-05-26T02:34:32.075Z,11.50
2019-05-26T02:37:04.100Z,11.50
2019-05-26T02:39:34.628Z,11.50
2019-05-26T02:42:04.770Z,11.60
2019-05-26T02:44:35.169Z,11.60
2019-05-26T02:47:05.814Z,11.70
2019-05-26T02:49:37.371Z,11.70
2019-05-26T02:52:06.272Z,11.70
2019-05-26T02:54:38.090Z,11.60
2019-05-26T02:57:09.556Z,11.60
2019-05-26T02:59:40.900Z,11.60
2019-05-26T03:02:11.900Z,11.60
2019-05-26T03:04:42.316Z,11.50
2019-05-26T03:07:14.898Z,11.50
2019-05-26T03:09:46.418Z,11.60
2019-05-26T03:12:17.191Z,11.60
2019-05-26T03:14:49.901Z,11.60
2019-05-26T03:17:23.158Z,11.60
2019-05-26T03:19:54.038Z,11.60
2019-05-26T03:22:27.589Z,11.60
2019-05-26T03:25:00.791Z,11.60
2019-05-26T03:27:30.008Z,12.00
2019-05-26T03:29:59.444Z,12.00
2019-05-26T03:32:28.842Z,11.90
2019-05-26T03:34:59.033Z,11.90
2019-05-26T03:37:28.751Z,11.90
2019-05-26T03:39:58.378Z,12.00
2019-05-26T03:42:27.601Z,12.10
2019-05-26T03:44:58.857Z,12.10
2019-05-26T03:47:39.676Z,12.20
2019-05-26T03:50:10.080Z,12.30
2019-05-26T03:52:39.211Z,12.40
2019-05-26T03:55:08.500Z,12.40
2019-05-26T03:57:37.788Z,12.40
2019-05-26T04:00:08.329Z,12.30
2019-05-26T04:02:37.699Z,12.20
2019-05-26T04:05:09.069Z,12.30
2019-05-26T04:07:38.265Z,12.30
2019-05-26T04:10:08.097Z,12.30
2019-05-26T04:12:37.404Z,12.30
2019-05-26T04:15:06.923Z,12.30
2019-05-26T04:17:55.539Z,12.40
2019-05-26T04:20:24.974Z,12.40
2019-05-26T04:22:54.725Z,12.40
2019-05-26T04:25:23.976Z,12.50
2019-05-26T04:27:54.387Z,12.60
2019-05-26T04:30:23.625Z,12.60
2019-05-26T04:32:53.204Z,12.60
2019-05-26T04:35:23.089Z,12.60
2019-05-26T04:37:56.019Z,12.60
2019-05-26T04:40:27.628Z,12.70
2019-05-26T04:42:56.334Z,12.70
2019-05-26T04:45:28.948Z,12.80
2019-05-26T04:48:00.747Z,12.80
2019-05-26T04:50:30.350Z,12.80
2019-05-26T04:53:06.536Z,12.90
2019-05-26T04:55:30.773Z,12.90
2019-05-26T04:58:00.025Z,13.00
2019-05-26T05:00:29.935Z,13.10
2019-05-26T05:03:05.851Z,13.20
2019-05-26T05:05:35.729Z,13.20
2019-05-26T05:08:12.813Z,13.30
2019-05-26T05:10:43.002Z,13.30
2019-05-26T05:13:20.458Z,13.30
2019-05-26T05:15:49.831Z,13.40
2019-05-26T05:18:19.069Z,13.40
2019-05-26T05:20:48.584Z,13.40
2019-05-26T05:23:18.101Z,13.50
2019-05-26T05:25:47.236Z,13.50
2019-05-26T05:28:19.236Z,13.60
2019-05-26T05:31:37.856Z,13.70
2019-05-26T05:34:07.089Z,13.70
2019-05-26T05:36:36.368Z,13.70
2019-05-26T05:39:08.252Z,13.80
2019-05-26T05:41:37.493Z,13.90
2019-05-26T05:44:06.711Z,13.90
2019-05-26T05:46:35.907Z,14.00
2019-05-26T05:49:05.249Z,14.10
2019-05-26T05:51:38.184Z,14.10
2019-05-26T05:54:11.336Z,14.20
2019-05-26T05:56:40.811Z,14.20
2019-05-26T05:59:09.985Z,14.20
2019-05-26T06:01:39.259Z,14.30
2019-05-26T06:04:08.647Z,14.30
2019-05-26T06:06:38.234Z,14.30
2019-05-26T06:09:07.792Z,14.40
2019-05-26T06:11:37.118Z,14.50
2019-05-26T06:14:06.272Z,14.60
2019-05-26T06:16:36.751Z,14.60
2019-05-26T06:19:06.255Z,14.70
2019-05-26T06:21:35.717Z,14.80
2019-05-26T06:24:08.698Z,14.90
2019-05-26T06:26:37.896Z,15.00
2019-05-26T06:29:07.044Z,15.10
2019-05-26T06:31:38.704Z,15.30
2019-05-26T06:34:08.000Z,15.50
2019-05-26T06:36:37.391Z,15.70
2019-05-26T06:39:10.354Z,15.90
2019-05-26T06:41:42.780Z,16.00
2019-05-26T06:44:12.267Z,16.10
2019-05-26T06:46:41.769Z,16.30
2019-05-26T06:49:10.919Z,16.50
2019-05-26T06:51:43.206Z,16.60
2019-05-26T06:54:13.922Z,16.80
2019-05-26T06:56:45.753Z,16.90
2019-05-26T06:59:17.112Z,16.80
2019-05-26T07:01:47.420Z,17.00
2019-05-26T07:04:16.995Z,17.10
2019-05-26T07:06:46.263Z,17.40
2019-05-26T07:09:15.413Z,17.60
2019-05-26T07:11:55.745Z,17.70
2019-05-26T07:14:16.659Z,17.80
2019-05-26T07:16:46.221Z,18.00
2019-05-26T07:19:16.779Z,18.10
2019-05-26T07:21:46.278Z,18.30
2019-05-26T07:24:15.739Z,18.30
2019-05-26T07:26:46.159Z,18.60
2019-05-26T07:29:19.529Z,18.60
2019-05-26T07:31:59.627Z,18.80
2019-05-26T07:34:30.116Z,18.90
2019-05-26T07:37:01.745Z,19.20
2019-05-26T07:39:34.784Z,19.40
2019-05-26T07:42:10.687Z,19.50
2019-05-26T07:44:36.458Z,19.60
2019-05-26T07:47:08.650Z,19.70
2019-05-26T07:49:37.816Z,20.10
2019-05-26T07:52:08.144Z,20.50
2019-05-26T07:54:39.952Z,20.70
2019-05-26T07:57:09.202Z,20.50
2019-05-26T07:59:39.521Z,20.40
2019-05-26T08:02:16.576Z,20.40
2019-05-26T08:04:47.131Z,20.70
2019-05-26T08:07:23.109Z,21.20
2019-05-26T08:10:02.473Z,21.50
2019-05-26T08:12:33.222Z,21.50
2019-05-26T08:15:02.708Z,21.60
2019-05-26T08:17:32.121Z,21.60
2019-05-26T08:20:02.396Z,21.70
2019-05-26T08:22:33.221Z,21.40
2019-05-26T08:25:06.275Z,21.70
2019-05-26T08:27:36.209Z,21.70
2019-05-26T08:30:14.709Z,22.20
2019-05-26T08:32:43.683Z,22.20
2019-05-26T08:35:19.630Z,22.50
2019-05-26T08:37:52.877Z,22.80
2019-05-26T08:40:22.423Z,23.10
2019-05-26T08:42:53.921Z,23.00
2019-05-26T08:45:23.707Z,22.80
2019-05-26T08:47:53.104Z,23.00
2019-05-26T08:50:24.780Z,23.30
2019-05-26T08:52:54.673Z,23.60
2019-05-26T08:55:24.134Z,23.40
2019-05-26T08:57:55.243Z,23.50
2019-05-26T09:00:25.879Z,23.50
2019-05-26T09:02:57.974Z,23.70
2019-05-26T09:05:27.646Z,23.90
2019-05-26T09:07:56.871Z,23.80
2019-05-26T09:10:26.040Z,24.20
2019-05-26T09:13:01.147Z,24.30
2019-05-26T09:15:27.747Z,24.50
2019-05-26T09:17:59.130Z,24.40
2019-05-26T09:20:28.430Z,24.60
2019-05-26T09:22:58.409Z,24.50
2019-05-26T09:25:33.410Z,24.60
2019-05-26T09:28:05.099Z,24.40
2019-05-26T09:30:35.047Z,24.40
2019-05-26T09:33:18.121Z,24.10
2019-05-26T09:35:47.349Z,24.00
2019-05-26T09:38:16.624Z,23.90
2019-05-26T09:40:45.898Z,23.70
2019-05-26T09:43:16.744Z,23.60
2019-05-26T09:45:46.397Z,23.90
2019-05-26T09:48:16.195Z,23.90
2019-05-26T09:50:45.441Z,23.80
2019-05-26T09:53:14.667Z,23.80
2019-05-26T09:55:43.869Z,23.50
2019-05-26T09:58:17.231Z,24.00
2019-05-26T10:00:50.678Z,24.40
2019-05-26T10:03:20.724Z,24.10
2019-05-26T10:05:52.305Z,23.80
2019-05-26T10:08:21.334Z,24.40
2019-05-26T10:10:52.822Z,24.70
2019-05-26T10:13:31.284Z,25.20
2019-05-26T10:15:56.871Z,25.10
2019-05-26T10:18:27.549Z,25.00
2019-05-26T10:20:56.788Z,25.40
2019-05-26T10:23:26.065Z,25.00
2019-05-26T10:25:58.340Z,24.80
2019-05-26T10:28:37.026Z,24.70
2019-05-26T10:31:15.391Z,24.50
2019-05-26T10:33:44.794Z,24.10
2019-05-26T10:36:16.499Z,23.80
2019-05-26T10:38:46.174Z,23.50
2019-05-26T10:41:16.704Z,23.50
2019-05-26T10:43:47.680Z,23.10
2019-05-26T10:46:20.342Z,22.90
2019-05-26T10:48:49.596Z,22.90
2019-05-26T10:51:22.329Z,23.00
2019-05-26T10:53:54.103Z,22.80
2019-05-26T10:56:28.461Z,22.90
2019-05-26T10:58:57.964Z,23.20
2019-05-26T11:01:27.213Z,23.10
2019-05-26T11:03:57.041Z,22.80
2019-05-26T11:06:26.990Z,23.00
2019-05-26T11:08:56.159Z,22.90
2019-05-26T11:11:25.361Z,23.10
2019-05-26T11:14:06.096Z,23.20
2019-05-26T11:16:35.679Z,23.20
2019-05-26T11:19:07.778Z,22.90
2019-05-26T11:21:39.600Z,22.50
2019-05-26T11:24:10.267Z,22.70
2019-05-26T11:26:40.037Z,22.70
2019-05-26T11:29:12.026Z,22.90
2019-05-26T11:31:41.500Z,22.80
2019-05-26T11:34:13.839Z,23.10
2019-05-26T11:36:46.182Z,23.30
2019-05-26T11:39:15.414Z,23.50
2019-05-26T11:41:54.970Z,23.30
2019-05-26T11:44:24.876Z,23.20
2019-05-26T11:47:00.942Z,23.30
2019-05-26T11:49:31.965Z,23.60
2019-05-26T11:52:03.522Z,23.60
2019-05-26T11:54:34.640Z,23.50
2019-05-26T11:57:05.612Z,24.00
2019-05-26T11:59:34.760Z,23.90
2019-05-26T12:02:04.370Z,24.00
2019-05-26T12:04:48.495Z,24.10
2019-05-26T12:07:21.844Z,24.00
2019-05-26T12:09:51.373Z,23.90
2019-05-26T12:12:22.591Z,24.00
2019-05-26T12:14:51.979Z,23.80
2019-05-26T12:17:22.626Z,24.10
2019-05-26T12:19:52.688Z,24.00
2019-05-26T12:22:25.689Z,23.80
2019-05-26T12:24:56.240Z,24.00
2019-05-26T12:27:25.517Z,24.00
2019-05-26T12:29:55.093Z,24.00
2019-05-26T12:32:24.363Z,23.40
2019-05-26T12:34:53.542Z,23.40
2019-05-26T12:37:22.979Z,23.40
2019-05-26T12:39:52.112Z,23.70
2019-05-26T12:42:21.323Z,23.50
2019-05-26T12:44:50.595Z,23.10
2019-05-26T12:47:19.844Z,23.00
2019-05-26T12:49:49.930Z,23.10
2019-05-26T12:52:19.259Z,23.30
2019-05-26T12:54:48.443Z,23.20
2019-05-26T12:57:19.008Z,23.00
2019-05-26T12:59:48.514Z,23.30
2019-05-26T13:02:17.996Z,23.30
2019-05-26T13:04:47.712Z,23.40
2019-05-26T13:07:17.055Z,23.60
2019-05-26T13:09:46.248Z,23.20
2019-05-26T13:12:17.349Z,23.10
2019-05-26T13:14:46.607Z,22.80
2019-05-26T13:17:15.823Z,22.50
2019-05-26T13:19:47.454Z,22.70
2019-05-26T13:22:19.004Z,22.30
2019-05-26T13:24:48.231Z,22.10
2019-05-26T13:27:17.526Z,22.30
2019-05-26T13:29:47.423Z,22.30
2019-05-26T13:32:16.919Z,22.30
2019-05-26T13:34:47.203Z,22.50
2019-05-26T13:37:16.558Z,22.60
2019-05-26T13:39:45.761Z,22.60
2019-05-26T13:42:18.054Z,22.90
2019-05-26T13:44:59.016Z,22.80
2019-05-26T13:47:30.337Z,22.80
2019-05-26T13:49:59.918Z,23.10
2019-05-26T13:52:31.446Z,23.20
2019-05-26T13:55:03.172Z,23.50
2019-05-26T13:57:34.100Z,23.60
2019-05-26T14:00:06.851Z,23.50
2019-05-26T14:02:36.817Z,23.50
2019-05-26T14:05:06.706Z,23.60
2019-05-26T14:07:36.938Z,23.70
2019-05-26T14:10:10.210Z,23.90
2019-05-26T14:12:39.423Z,23.70
2019-05-26T14:15:11.962Z,23.90
2019-05-26T14:17:46.379Z,23.90
2019-05-26T14:20:19.001Z,23.80
2019-05-26T14:22:48.299Z,24.10
2019-05-26T14:25:19.938Z,24.30
2019-05-26T14:27:49.528Z,24.00
2019-05-26T14:30:19.982Z,23.90
2019-05-26T14:32:51.438Z,24.10
2019-05-26T14:35:22.088Z,24.30
2019-05-26T14:37:53.944Z,23.70
2019-05-26T14:40:23.186Z,23.60
2019-05-26T14:42:55.537Z,23.70
2019-05-26T14:45:25.368Z,24.10
2019-05-26T14:47:54.796Z,24.10
2019-05-26T14:50:24.805Z,24.50
2019-05-26T14:52:56.333Z,24.30
2019-05-26T14:55:26.460Z,24.10
2019-05-26T14:57:55.732Z,24.30
2019-05-26T15:00:27.736Z,24.60
2019-05-26T15:02:57.161Z,24.20
2019-05-26T15:05:26.453Z,24.10
2019-05-26T15:07:58.190Z,24.00
2019-05-26T15:10:27.840Z,23.40
2019-05-26T15:12:59.248Z,23.50
2019-05-26T15:15:29.610Z,23.60
2019-05-26T15:18:02.579Z,23.60
2019-05-26T15:20:33.851Z,23.60
2019-05-26T15:23:03.120Z,23.20
2019-05-26T15:25:32.550Z,23.10
2019-05-26T15:28:02.576Z,23.10
2019-05-26T15:30:34.220Z,22.90
2019-05-26T15:33:05.265Z,22.90
2019-05-26T15:35:39.337Z,23.40
2019-05-26T15:38:08.549Z,23.40
2019-05-26T15:40:38.007Z,23.40
2019-05-26T15:43:08.811Z,23.40
2019-05-26T15:45:38.255Z,23.40
2019-05-26T15:48:07.464Z,23.60
2019-05-26T15:50:36.770Z,23.60
2019-05-26T15:53:06.065Z,23.80
2019-05-26T15:55:35.304Z,24.10
2019-05-26T15:58:04.481Z,24.40
2019-05-26T16:00:33.725Z,24.40
2019-05-26T16:03:02.910Z,24.40
2019-05-26T16:05:32.165Z,24.60
2019-05-26T16:08:04.373Z,25.00
2019-05-26T16:10:33.838Z,25.00
2019-05-26T16:13:07.810Z,25.00
2019-05-26T16:15:37.326Z,25.40
2019-05-26T16:18:08.736Z,25.60
2019-05-26T16:20:38.975Z,25.00
2019-05-26T16:23:09.069Z,24.70
2019-05-26T16:25:42.590Z,24.30
2019-05-26T16:28:12.951Z,24.10
2019-05-26T16:30:45.288Z,23.60
2019-05-26T16:33:14.595Z,23.30
2019-05-26T16:35:44.025Z,23.10
2019-05-26T16:38:13.335Z,23.20
2019-05-26T16:40:44.184Z,22.90
2019-05-26T16:43:16.513Z,22.70
2019-05-26T16:45:55.722Z,22.60
2019-05-26T16:48:19.781Z,22.60
2019-05-26T16:50:49.021Z,22.40
2019-05-26T16:53:18.625Z,22.30
2019-05-26T16:55:47.964Z,22.30
2019-05-26T16:58:18.153Z,22.20
2019-05-26T17:00:48.617Z,21.60
2019-05-26T17:03:19.436Z,21.70
2019-05-26T17:06:05.236Z,21.60
2019-05-26T17:08:22.347Z,21.40
2019-05-26T17:10:55.785Z,21.40
2019-05-26T17:13:27.968Z,21.50
2019-05-26T17:15:57.247Z,21.20
2019-05-26T17:18:26.548Z,21.00
2019-05-26T17:20:56.264Z,21.10
2019-05-26T17:23:25.470Z,21.00
2019-05-26T17:26:06.880Z,20.70
2019-05-26T17:28:37.630Z,20.50
2019-05-26T17:31:07.474Z,20.00
2019-05-26T17:33:39.071Z,19.90
2019-05-26T17:36:11.000Z,19.60
2019-05-26T17:38:41.119Z,19.50
2019-05-26T17:41:12.127Z,19.20
2019-05-26T17:43:41.744Z,19.00
2019-05-26T17:46:17.689Z,19.00
2019-05-26T17:48:48.024Z,18.70
2019-05-26T17:51:22.496Z,18.70
2019-05-26T17:53:52.424Z,18.80
2019-05-26T17:56:21.740Z,18.60
2019-05-26T17:58:51.041Z,18.50
2019-05-26T18:01:20.292Z,18.50
2019-05-26T18:03:49.431Z,18.50
2019-05-26T18:06:18.685Z,18.50
2019-05-26T18:08:48.022Z,18.50
2019-05-26T18:11:17.199Z,18.40
2019-05-26T18:13:46.825Z,18.30
2019-05-26T18:16:19.140Z,18.30
2019-05-26T18:18:51.062Z,18.30
2019-05-26T18:21:20.298Z,18.30
2019-05-26T18:23:51.097Z,18.30
2019-05-26T18:26:21.477Z,18.20
2019-05-26T18:28:51.397Z,18.10
2019-05-26T18:31:20.857Z,17.90
2019-05-26T18:33:53.238Z,17.80
2019-05-26T18:36:23.002Z,17.80
2019-05-26T18:38:52.672Z,17.60
2019-05-26T18:41:22.768Z,17.60
2019-05-26T18:44:01.378Z,17.60
2019-05-26T18:46:30.993Z,17.50
2019-05-26T18:49:01.844Z,17.40
2019-05-26T18:51:31.237Z,17.40
2019-05-26T18:54:00.569Z,17.30
2019-05-26T18:56:31.329Z,17.20
2019-05-26T18:59:03.066Z,17.10
2019-05-26T19:01:38.202Z,16.90
2019-05-26T19:04:07.503Z,16.70
2019-05-26T19:06:36.747Z,16.60
2019-05-26T19:09:10.438Z,16.40
2019-05-26T19:11:42.226Z,16.30
2019-05-26T19:14:13.889Z,16.20
2019-05-26T19:16:43.159Z,16.10
2019-05-26T19:19:12.384Z,16.10
2019-05-26T19:21:41.641Z,16.10
2019-05-26T19:24:10.972Z,16.00
2019-05-26T19:26:40.266Z,15.90
2019-05-26T19:29:09.599Z,15.80
2019-05-26T19:31:38.860Z,15.80
2019-05-26T19:34:08.074Z,15.70
2019-05-26T19:36:37.246Z,15.70
2019-05-26T19:39:09.210Z,15.70
2019-05-26T19:41:39.489Z,15.70
2019-05-26T19:44:08.854Z,15.60
2019-05-26T19:46:39.224Z,15.60
2019-05-26T19:49:08.467Z,15.60
2019-05-26T19:51:38.891Z,15.60
2019-05-26T19:54:09.479Z,15.50
2019-05-26T19:56:40.525Z,15.40
2019-05-26T19:59:12.365Z,15.40
2019-05-26T20:01:41.969Z,15.40
2019-05-26T20:04:11.603Z,15.40
2019-05-26T20:06:43.948Z,15.40
2019-05-26T20:09:12.995Z,15.30
2019-05-26T20:11:44.785Z,15.20
2019-05-26T20:14:19.758Z,15.20
2019-05-26T20:16:50.044Z,15.20
2019-05-26T20:19:19.325Z,15.30
2019-05-26T20:21:50.894Z,15.20
2019-05-26T20:24:20.025Z,15.20
2019-05-26T20:26:49.625Z,15.20
2019-05-26T20:29:19.088Z,15.20
2019-05-26T20:31:48.223Z,15.20
2019-05-26T20:34:17.376Z,15.20
2019-05-26T20:36:46.611Z,15.10
2019-05-26T20:39:15.848Z,15.00
2019-05-26T20:41:45.160Z,15.00
2019-05-26T20:44:14.358Z,14.90
2019-05-26T20:46:43.573Z,14.90
2019-05-26T20:49:16.274Z,14.90
2019-05-26T20:51:46.660Z,14.90
2019-05-26T20:54:15.828Z,14.90
2019-05-26T20:56:45.940Z,14.90
2019-05-26T20:59:15.596Z,14.90
2019-05-26T21:01:44.749Z,14.90
2019-05-26T21:04:14.063Z,14.90
2019-05-26T21:06:43.258Z,14.90
2019-05-26T21:09:13.933Z,14.90
2019-05-26T21:11:48.243Z,14.90
2019-05-26T21:14:17.906Z,14.90
2019-05-26T21:16:47.165Z,14.90
2019-05-26T21:19:19.079Z,14.90
2019-05-26T21:21:48.203Z,14.90
2019-05-26T21:24:18.185Z,14.90
2019-05-26T21:26:48.215Z,14.90
2019-05-26T21:29:17.371Z,14.90
2019-05-26T21:31:46.558Z,14.90
2019-05-26T21:34:16.022Z,14.90
2019-05-26T21:36:45.157Z,14.90
2019-05-26T21:39:14.349Z,14.90
2019-05-26T21:41:43.667Z,14.90
2019-05-26T21:44:12.949Z,14.90
2019-05-26T21:46:42.149Z,14.90
2019-05-26T21:49:13.459Z,14.90
2019-05-26T21:51:45.621Z,14.90
2019-05-26T21:54:15.197Z,14.90
2019-05-26T21:56:44.424Z,14.90
2019-05-26T21:59:17.192Z,14.90
2019-05-26T22:01:46.549Z,14.80
2019-05-26T22:04:15.828Z,14.90
2019-05-26T22:06:45.803Z,14.90
2019-05-26T22:09:15.916Z,14.90
2019-05-26T22:11:45.140Z,14.80
2019-05-26T22:14:14.302Z,14.80
2019-05-26T22:16:45.338Z,14.80
2019-05-26T22:19:15.156Z,14.80
2019-05-26T22:21:44.407Z,14.80
2019-05-26T22:24:13.650Z,14.80
2019-05-26T22:26:43.049Z,14.70
2019-05-26T22:29:12.575Z,14.70
2019-05-26T22:31:43.000Z,14.80
2019-05-26T22:34:15.590Z,14.70
2019-05-26T22:36:44.748Z,14.80
2019-05-26T22:39:17.522Z,14.70
2019-05-26T22:41:46.723Z,14.60
2019-05-26T22:44:15.951Z,14.60
2019-05-26T22:46:45.304Z,14.50
2019-05-26T22:49:14.518Z,14.50
2019-05-26T22:51:43.779Z,14.40
2019-05-26T22:54:13.130Z,14.40
2019-05-26T22:56:42.492Z,14.40
2019-05-26T22:59:11.878Z,14.30
2019-05-26T23:01:41.140Z,14.20
2019-05-26T23:04:10.797Z,14.20
2019-05-26T23:06:40.055Z,14.10
2019-05-26T23:09:10.367Z,14.10
2019-05-26T23:11:39.599Z,14.10
2019-05-26T23:14:12.480Z,14.10
2019-05-26T23:16:42.008Z,14.00
2019-05-26T23:19:23.636Z,14.00
2019-05-26T23:22:02.650Z,14.00
2019-05-26T23:24:32.979Z,14.00
2019-05-26T23:27:05.059Z,13.90
2019-05-26T23:29:37.170Z,13.90
2019-05-26T23:32:08.091Z,13.90
2019-05-26T23:34:37.679Z,13.90
2019-05-26T23:37:07.296Z,13.90
2019-05-26T23:39:42.347Z,13.90
2019-05-26T23:42:15.985Z,13.90
2019-05-26T23:44:45.144Z,13.90
2019-05-26T23:47:22.801Z,13.90
2019-05-26T23:49:52.709Z,13.90
2019-05-26T23:52:21.904Z,13.80
2019-05-26T23:54:53.709Z,13.80
2019-05-26T23:57:22.972Z,13.80
2019-05-26T23:59:52.099Z,13.70
